Time;durP1;ratioP1;P1;durP2;ratioP2;P2;SDS_P1;SDS_P2;PMS_P1;PMS_P2;Temp;Humidity;BMP_temperature;BMP_pressure;BME280_temperature;BME280_humidity;BME280_pressure;Samples;Min_cycle;Max_cycle;Signal;HPM_P1;HPM_P2
2022/05/03 00:01:52;;;;;;;;;;;;;;;14.12;66.12;99579.03;4969697;28;20422;-83
2022/05/03 00:04:29;;;;;;;;;;;;;;;14.13;66.38;99578.97;4970175;28;19933;-81
2022/05/03 00:06:57;;;;;;;;;;;;;;;14.01;66.70;99576.69;4971217;28;19909;-81
2022/05/03 00:09:30;;;;;;;;;;;;;;;13.93;67.92;99584.00;4969790;28;19926;-83
2022/05/03 00:12:08;;;;;;;;;;;;;;;13.95;68.32;99582.19;4969995;28;20456;-82
2022/05/03 00:14:38;;;;;;;;;;;;;;;13.97;67.85;99577.69;4970011;28;20450;-83
2022/05/03 00:17:04;;;;;;;;;;;;;;;13.94;68.03;99577.78;4969856;28;19914;-82
2022/05/03 00:19:30;;;;;;;;;;;;;;;13.71;69.01;99579.34;4970031;28;19975;-81
2022/05/03 00:21:55;;;;;;;;;;;;;;;13.83;68.41;99579.91;4962058;28;19923;-81
2022/05/03 00:24:20;;;;;;;;;;;;;;;13.79;68.96;99572.06;4960758;28;20525;-81
2022/05/03 00:26:46;;;;;;;;;;;;;;;13.85;68.89;99576.28;4970867;28;20373;-81
2022/05/03 00:29:12;;;;;;;;;;;;;;;13.87;68.63;99568.28;4990237;28;19918;-81
2022/05/03 00:31:37;;;;;;;;;;;;;;;13.82;69.39;99576.38;4985633;28;19974;-81
2022/05/03 00:34:03;;;;;;;;;;;;;;;13.87;68.67;99573.59;4969174;28;20348;-81
2022/05/03 00:36:28;;;;;;;;;;;;;;;13.76;69.70;99568.59;4970675;28;19929;-81
2022/05/03 00:38:53;;;;;;;;;;;;;;;13.71;70.40;99567.88;4970555;28;19918;-80
2022/05/03 00:41:25;;;;;;;;;;;;;;;13.73;69.83;99566.94;4970051;28;19921;-82
2022/05/03 00:43:55;;;;;;;;;;;;;;;13.81;69.77;99572.00;4970240;28;19918;-81
2022/05/03 00:46:23;;;;;;;;;;;;;;;13.65;70.36;99568.06;4969774;28;19933;-82
2022/05/03 00:49:06;;;;;;;;;;;;;;;13.64;70.27;99566.31;4970428;28;19960;-80
2022/05/03 00:51:44;;;;;;;;;;;;;;;13.74;70.12;99567.78;4970227;28;19922;-81
2022/05/03 00:54:12;;;;;;;;;;;;;;;13.69;70.99;99575.88;4969711;28;19922;-81
2022/05/03 00:56:52;;;;;;;;;;;;;;;13.55;70.64;99564.84;4969753;28;19929;-82
2022/05/03 00:59:40;;;;;;;;;;;;;;;13.58;69.75;99560.28;4969182;28;20404;-81
2022/05/03 01:02:06;;;;;;;;;;;;;;;13.65;70.06;99563.63;4969079;28;20021;-81
2022/05/03 01:04:40;;;;;;;;;;;;;;;13.66;70.21;99561.88;4969830;28;19980;-81
2022/05/03 01:07:13;;;;;;;;;;;;;;;13.59;70.84;99555.84;4969890;28;19953;-81
2022/05/03 01:09:42;;;;;;;;;;;;;;;13.48;70.99;99558.81;4969288;28;19929;-81
2022/05/03 01:12:20;;;;;;;;;;;;;;;13.62;70.05;99561.06;4968894;28;19956;-81
2022/05/03 01:14:45;;;;;;;;;;;;;;;13.52;70.93;99563.13;4950140;29;19922;-82
2022/05/03 01:17:20;;;;;;;;;;;;;;;13.49;71.30;99562.38;4949644;28;20527;-82
2022/05/03 01:20:04;;;;;;;;;;;;;;;13.44;71.17;99562.50;4950156;28;20005;-81
2022/05/03 01:22:38;;;;;;;;;;;;;;;13.47;70.88;99564.16;4966336;28;19922;-81
2022/05/03 01:25:22;;;;;;;;;;;;;;;13.59;70.14;99561.16;4969269;28;20063;-82
2022/05/03 01:27:51;;;;;;;;;;;;;;;13.36;71.27;99565.34;4969199;28;20389;-83
2022/05/03 01:30:16;;;;;;;;;;;;;;;13.47;70.65;99556.22;4968308;28;19929;-81
2022/05/03 01:32:43;;;;;;;;;;;;;;;13.37;70.43;99568.88;4969161;28;19922;-81
2022/05/03 01:35:11;;;;;;;;;;;;;;;13.40;70.63;99556.38;4968387;28;20378;-81
2022/05/03 01:37:46;;;;;;;;;;;;;;;13.27;71.19;99562.94;4969194;28;19921;-82
2022/05/03 01:40:12;;;;;;;;;;;;;;;13.33;71.53;99560.16;4967803;28;19966;-83
2022/05/03 01:42:45;;;;;;;;;;;;;;;13.44;71.31;99559.84;4969173;28;19922;-82
2022/05/03 01:45:11;;;;;;;;;;;;;;;13.43;71.65;99556.31;4968871;28;19917;-80
2022/05/03 01:47:58;;;;;;;;;;;;;;;13.56;71.10;99553.28;4968154;28;20099;-81
2022/05/03 01:50:29;;;;;;;;;;;;;;;13.44;71.39;99554.53;4968819;28;19918;-81
2022/05/03 01:53:06;;;;;;;;;;;;;;;13.46;71.98;99554.50;4968791;28;19953;-82
2022/05/03 01:55:50;;;;;;;;;;;;;;;13.44;71.57;99559.84;4968543;28;19918;-82
2022/05/03 01:58:34;;;;;;;;;;;;;;;13.41;72.24;99562.59;4968715;28;19925;-81
2022/05/03 02:01:02;;;;;;;;;;;;;;;13.31;72.58;99555.75;4968606;28;20401;-82
2022/05/03 02:03:44;;;;;;;;;;;;;;;13.34;72.90;99561.88;4968874;28;19918;-84
2022/05/03 02:06:10;;;;;;;;;;;;;;;13.33;72.59;99560.16;4968608;28;19929;-82
2022/05/03 02:08:52;;;;;;;;;;;;;;;13.29;73.19;99561.09;4966590;28;20042;-81
2022/05/03 02:11:26;;;;;;;;;;;;;;;13.34;72.76;99566.31;4968383;28;20579;-82
2022/05/03 02:17:18;;;;;;;;;;;;;;;13.38;73.11;99568.81;4968667;28;19924;-81
2022/05/03 02:19:52;;;;;;;;;;;;;;;13.33;72.82;99562.81;4959828;28;20393;-82
2022/05/03 02:22:36;;;;;;;;;;;;;;;13.29;72.10;99565.53;4968436;28;19929;-82
2022/05/03 02:25:21;;;;;;;;;;;;;;;13.31;72.38;99569.00;4968002;28;19949;-82
2022/05/03 02:27:48;;;;;;;;;;;;;;;13.17;72.74;99564.94;4968008;28;19924;-82
2022/05/03 02:30:15;;;;;;;;;;;;;;;13.11;73.52;99575.72;4968045;28;19926;-82
2022/05/03 02:32:55;;;;;;;;;;;;;;;13.21;73.10;99571.91;4968304;28;20356;-83
2022/05/03 02:35:23;;;;;;;;;;;;;;;13.32;72.81;99581.34;4968669;28;19964;-82
2022/05/03 02:37:49;;;;;;;;;;;;;;;13.21;72.83;99574.56;4968434;28;20009;-81
2022/05/03 02:40:24;;;;;;;;;;;;;;;13.19;73.52;99578.16;4968093;28;20056;-83
2022/05/03 02:42:51;;;;;;;;;;;;;;;13.33;73.25;99583.06;4966910;28;20370;-83
2022/05/03 02:45:17;;;;;;;;;;;;;;;13.31;73.30;99582.25;4972312;28;19910;-83
2022/05/03 02:47:42;;;;;;;;;;;;;;;13.19;73.09;99583.44;4972370;28;20008;-83
2022/05/03 02:50:08;;;;;;;;;;;;;;;13.08;74.22;99584.63;4972167;28;20114;-83
2022/05/03 02:52:42;;;;;;;;;;;;;;;13.07;74.18;99582.88;4971044;28;19922;-83
2022/05/03 02:55:16;;;;;;;;;;;;;;;13.19;74.10;99591.41;4972118;28;19965;-83
2022/05/03 02:57:47;;;;;;;;;;;;;;;13.27;74.64;99594.72;4972286;28;19949;-83
2022/05/03 03:03:15;;;;;;;;;;;;;;;13.11;73.98;99594.25;4966031;28;19943;-84
2022/05/03 03:05:44;;;;;;;;;;;;;;;13.19;74.47;99597.59;4972548;28;19961;-83
2022/05/03 03:08:13;;;;;;;;;;;;;;;13.38;74.16;99611.22;4972184;28;20377;-84
2022/05/03 03:10:51;;;;;;;;;;;;;;;13.18;74.06;99601.13;4972013;28;20014;-83
2022/05/03 03:13:34;;;;;;;;;;;;;;;12.96;75.56;99606.16;4971296;28;19922;-83
2022/05/03 03:16:00;;;;;;;;;;;;;;;12.98;76.20;99606.09;4971922;28;19918;-86
2022/05/03 03:18:26;;;;;;;;;;;;;;;13.06;75.71;99607.63;4971395;28;19925;-83
2022/05/03 03:20:56;;;;;;;;;;;;;;;13.01;76.09;99611.31;4971797;28;19918;-83
2022/05/03 03:23:25;;;;;;;;;;;;;;;13.05;76.01;99613.84;4971570;28;19929;-83
2022/05/03 03:25:50;;;;;;;;;;;;;;;13.19;75.44;99616.13;4971277;28;19918;-82
2022/05/03 03:28:17;;;;;;;;;;;;;;;13.34;74.88;99619.28;4970556;28;20384;-82
2022/05/03 03:30:44;;;;;;;;;;;;;;;13.44;74.58;99626.09;4971576;28;19976;-82
2022/05/03 03:33:10;;;;;;;;;;;;;;;13.30;74.83;99621.13;4971538;28;19918;-82
2022/05/03 03:35:36;;;;;;;;;;;;;;;13.31;74.84;99629.94;4971627;28;19914;-83
2022/05/03 03:38:01;;;;;;;;;;;;;;;13.40;74.00;99633.22;4970346;28;19925;-83
2022/05/03 03:40:27;;;;;;;;;;;;;;;13.46;74.51;99632.19;4970843;28;19925;-83
2022/05/03 03:42:53;;;;;;;;;;;;;;;13.49;74.07;99641.84;4971502;28;19918;-83
2022/05/03 03:45:19;;;;;;;;;;;;;;;13.46;74.05;99636.63;4971161;28;19953;-82
2022/05/03 03:47:45;;;;;;;;;;;;;;;13.47;74.26;99641.00;4969829;28;20341;-84
2022/05/03 03:50:11;;;;;;;;;;;;;;;13.42;74.68;99643.78;4971235;28;19928;-82
2022/05/03 03:52:39;;;;;;;;;;;;;;;13.11;76.05;99641.94;4971059;28;19914;-83
2022/05/03 03:55:04;;;;;;;;;;;;;;;13.14;75.81;99639.19;4969898;28;19933;-82
2022/05/03 03:57:30;;;;;;;;;;;;;;;13.04;76.59;99646.53;4970375;28;19918;-84
2022/05/03 03:59:56;;;;;;;;;;;;;;;13.25;75.74;99636.25;4969687;28;19942;-83
2022/05/03 04:02:23;;;;;;;;;;;;;;;13.27;75.48;99639.75;4969682;28;19976;-82
2022/05/03 04:04:49;;;;;;;;;;;;;;;13.22;75.83;99646.94;4970770;28;20317;-86
2022/05/03 04:07:15;;;;;;;;;;;;;;;13.17;76.07;99646.19;4970979;28;20037;-86
2022/05/03 04:09:40;;;;;;;;;;;;;;;13.17;76.70;99651.50;4969576;28;20009;-85
2022/05/03 04:12:05;;;;;;;;;;;;;;;13.26;75.97;99652.13;4970811;28;20320;-85
2022/05/03 04:14:31;;;;;;;;;;;;;;;13.31;76.57;99652.00;4970122;28;19918;-85
2022/05/03 04:16:57;;;;;;;;;;;;;;;13.31;76.30;99654.63;4970969;28;19914;-86
2022/05/03 04:19:23;;;;;;;;;;;;;;;13.20;76.37;99659.38;4970496;28;19914;-85
2022/05/03 04:21:49;;;;;;;;;;;;;;;13.13;76.71;99660.41;4969953;28;19921;-85
2022/05/03 04:24:14;;;;;;;;;;;;;;;12.96;77.53;99663.50;4970357;28;20005;-85
2022/05/03 04:26:39;;;;;;;;;;;;;;;12.96;77.27;99672.34;4964283;28;19918;-85
2022/05/03 04:29:05;;;;;;;;;;;;;;;13.21;76.80;99661.13;4971562;28;20411;-85
2022/05/03 04:31:32;;;;;;;;;;;;;;;13.33;75.94;99667.84;4970142;28;20303;-85
2022/05/03 04:33:58;;;;;;;;;;;;;;;13.10;75.47;99665.78;4970330;28;20413;-85
2022/05/03 04:36:27;;;;;;;;;;;;;;;13.20;75.62;99670.81;4969954;28;20456;-84
2022/05/03 04:38:52;;;;;;;;;;;;;;;13.16;75.76;99678.88;4969750;28;22010;-84
2022/05/03 04:41:19;;;;;;;;;;;;;;;13.17;75.67;99676.19;4969709;28;19926;-84
2022/05/03 04:43:45;;;;;;;;;;;;;;;13.05;75.88;99672.09;4970171;28;19918;-84
2022/05/03 04:46:10;;;;;;;;;;;;;;;13.07;76.45;99677.38;4970155;28;19925;-84
2022/05/03 04:48:35;;;;;;;;;;;;;;;12.89;77.78;99676.88;4969620;28;20308;-84
2022/05/03 04:51:01;;;;;;;;;;;;;;;12.71;78.70;99674.69;4969832;28;20520;-84
2022/05/03 04:53:26;;;;;;;;;;;;;;;12.66;79.70;99677.44;4969021;28;20021;-83
2022/05/03 04:55:51;;;;;;;;;;;;;;;12.74;79.63;99679.91;4970075;28;19918;-82
2022/05/03 04:58:17;;;;;;;;;;;;;;;12.58;79.73;99683.84;4969031;28;20464;-82
2022/05/03 05:00:42;;;;;;;;;;;;;;;12.65;80.05;99691.59;4969673;28;20683;-82
2022/05/03 05:03:08;;;;;;;;;;;;;;;12.67;79.99;99694.22;4970253;28;19918;-82
2022/05/03 05:05:33;;;;;;;;;;;;;;;12.82;79.25;99683.28;4969449;28;19914;-83
2022/05/03 05:08:02;;;;;;;;;;;;;;;12.74;79.25;99684.34;4969198;28;20396;-85
2022/05/03 05:10:28;;;;;;;;;;;;;;;12.59;79.50;99694.41;4968924;28;19918;-85
2022/05/03 05:12:54;;;;;;;;;;;;;;;12.53;80.14;99682.16;4969504;28;20016;-82
2022/05/03 05:15:21;;;;;;;;;;;;;;;12.48;80.77;99692.00;4969452;28;20415;-86
2022/05/03 05:17:46;;;;;;;;;;;;;;;12.08;82.15;99694.63;4967999;28;19921;-85
2022/05/03 05:20:11;;;;;;;;;;;;;;;11.97;82.26;99692.22;4969316;28;20297;-86
2022/05/03 05:22:37;;;;;;;;;;;;;;;12.01;80.63;99699.19;4960748;28;20360;-85
2022/05/03 05:25:02;;;;;;;;;;;;;;;12.05;80.26;99695.59;4950226;29;20498;-85
2022/05/03 05:27:28;;;;;;;;;;;;;;;11.72;82.45;99690.03;4949355;29;19962;-84
2022/05/03 05:29:53;;;;;;;;;;;;;;;11.80;81.64;99695.16;4959785;28;19918;-82
2022/05/03 05:32:19;;;;;;;;;;;;;;;11.89;81.12;99694.13;4969773;28;19920;-83
2022/05/03 05:34:44;;;;;;;;;;;;;;;11.98;81.00;99696.59;4969135;28;20479;-84
2022/05/03 05:37:10;;;;;;;;;;;;;;;11.43;79.89;99694.13;4969424;28;19976;-84
2022/05/03 05:39:35;;;;;;;;;;;;;;;11.42;79.40;99705.56;4967408;28;20352;-86
2022/05/03 05:42:01;;;;;;;;;;;;;;;11.49;78.43;99708.09;4967635;28;19918;-84
2022/05/03 05:44:27;;;;;;;;;;;;;;;11.27;78.69;99709.34;4967751;28;19938;-85
2022/05/03 05:46:52;;;;;;;;;;;;;;;11.58;78.74;99713.22;4969240;28;20430;-85
2022/05/03 05:49:18;;;;;;;;;;;;;;;11.64;78.63;99708.69;4968268;28;19921;-83
2022/05/03 05:51:45;;;;;;;;;;;;;;;11.33;79.22;99711.03;4969162;28;19953;-84
2022/05/03 05:54:10;;;;;;;;;;;;;;;11.36;79.19;99710.97;4969383;28;19924;-86
2022/05/03 05:56:35;;;;;;;;;;;;;;;11.44;79.00;99708.19;4968591;28;20293;-84
2022/05/03 05:59:01;;;;;;;;;;;;;;;11.57;78.87;99719.38;4968305;28;19922;-85
2022/05/03 06:01:35;;;;;;;;;;;;;;;11.64;78.79;99721.03;4969007;28;19928;-85
2022/05/03 06:04:00;;;;;;;;;;;;;;;11.62;79.74;99717.56;4967949;28;20372;-85
2022/05/03 06:06:25;;;;;;;;;;;;;;;11.33;79.99;99721.59;4969131;28;20000;-84
2022/05/03 06:08:51;;;;;;;;;;;;;;;11.37;81.32;99720.66;4968497;28;19922;-84
2022/05/03 06:11:16;;;;;;;;;;;;;;;11.00;82.75;99725.66;4967473;28;19960;-83
2022/05/03 06:13:41;;;;;;;;;;;;;;;10.73;83.22;99736.63;4965233;28;19961;-84
2022/05/03 06:16:08;;;;;;;;;;;;;;;10.70;83.19;99733.16;4968405;28;20012;-86
2022/05/03 06:18:33;;;;;;;;;;;;;;;10.61;83.88;99730.66;4968843;28;19957;-86
2022/05/03 06:20:59;;;;;;;;;;;;;;;10.60;83.47;99731.53;4967685;28;19969;-84
2022/05/03 06:23:24;;;;;;;;;;;;;;;10.59;84.30;99735.09;4968274;28;19925;-85
2022/05/03 06:25:49;;;;;;;;;;;;;;;10.71;83.34;99735.78;4967907;28;19918;-85
2022/05/03 06:28:15;;;;;;;;;;;;;;;10.80;81.85;99737.41;4968035;28;19918;-86
2022/05/03 06:30:41;;;;;;;;;;;;;;;10.79;82.80;99737.44;4965748;28;19921;-85
2022/05/03 06:33:08;;;;;;;;;;;;;;;11.03;82.87;99737.06;4968391;28;20427;-85
2022/05/03 06:35:33;;;;;;;;;;;;;;;11.12;83.41;99738.66;4968527;28;19921;-85
2022/05/03 06:37:58;;;;;;;;;;;;;;;11.10;83.25;99735.19;4968144;28;20289;-85
2022/05/03 06:40:24;;;;;;;;;;;;;;;11.11;83.59;99736.94;4967778;28;19980;-84
2022/05/03 06:42:49;;;;;;;;;;;;;;;10.96;84.13;99739.81;4967975;28;19922;-84
2022/05/03 06:45:14;;;;;;;;;;;;;;;11.13;83.33;99739.56;4967401;28;19921;-84
2022/05/03 06:47:40;;;;;;;;;;;;;;;11.27;83.15;99737.53;4967885;28;19957;-85
2022/05/03 06:50:06;;;;;;;;;;;;;;;11.12;82.50;99749.22;4964699;28;19997;-85
2022/05/03 06:52:31;;;;;;;;;;;;;;;11.14;84.11;99742.16;4966392;28;19969;-85
2022/05/03 06:54:56;;;;;;;;;;;;;;;11.30;83.24;99734.84;4967200;28;19926;-85
2022/05/03 06:57:22;;;;;;;;;;;;;;;11.36;82.16;99740.03;4966850;28;19926;-85
2022/05/03 06:59:47;;;;;;;;;;;;;;;11.10;82.53;99741.31;4967637;28;20327;-85
2022/05/03 07:02:13;;;;;;;;;;;;;;;11.24;83.18;99748.16;4967036;28;20651;-84
2022/05/03 07:04:38;;;;;;;;;;;;;;;11.26;82.45;99762.19;4967641;28;19926;-84
2022/05/03 07:07:03;;;;;;;;;;;;;;;11.34;81.18;99757.69;4967014;28;19940;-86
2022/05/03 07:09:29;;;;;;;;;;;;;;;11.56;79.31;99757.28;4966769;28;20416;-85
2022/05/03 07:11:54;;;;;;;;;;;;;;;11.47;79.67;99763.59;4966722;28;20373;-85
2022/05/03 07:14:22;;;;;;;;;;;;;;;11.13;80.76;99769.44;4965976;28;19924;-85
2022/05/03 07:16:47;;;;;;;;;;;;;;;11.24;81.45;99769.28;4968002;28;20392;-84
2022/05/03 07:24:40;;;;;;;;;;;;;;;11.77;76.38;99769.22;4967665;28;20596;-84
2022/05/03 07:27:05;;;;;;;;;;;;;;;11.81;76.65;99770.91;4966866;28;20020;-85
2022/05/03 07:43:28;;;;;;;1.58;1.48;;;;;;;11.86;78.05;99717.97;5113224;27;1536027;-81
2022/05/03 07:45:54;;;;;;;1.02;0.60;;;;;;;12.25;77.87;99766.56;5137746;27;20062;-81
2022/05/03 07:48:20;;;;;;;;;;;;;;;12.32;77.42;99757.59;5126052;27;20769;-82
2022/05/03 07:50:46;;;;;;;1.15;1.05;;;;;;;12.27;77.00;99751.53;5133988;27;19919;-82
2022/05/03 07:53:11;;;;;;;1.25;0.70;;;;;;;12.02;76.16;99756.47;5145359;27;20522;-82
2022/05/03 07:55:36;;;;;;;;;;;;;;;12.38;75.77;99763.66;5144400;27;20566;-82
2022/05/03 07:58:02;;;;;;;;;;;;;;;12.47;79.22;99755.53;5126366;27;19977;-82
2022/05/03 08:00:27;;;;;;;1.40;1.33;;;;;;;12.33;76.75;99730.22;5125671;27;19926;-81
2022/05/03 08:02:53;;;;;;;;;;;;;;;12.34;76.89;99757.56;5137399;27;20023;-81
2022/05/03 08:05:18;;;;;;;;;;;;;;;12.37;75.75;99754.84;5125169;28;20397;-82
2022/05/03 08:07:44;;;;;;;0.80;0.80;;;;;;;12.25;77.61;99728.66;5126615;27;19915;-82
2022/05/03 08:10:10;;;;;;;;;;;;;;;12.86;76.88;99752.88;5124320;28;20046;-81
2022/05/03 08:12:36;;;;;;;0.75;0.68;;;;;;;12.83;76.47;99732.63;5126903;27;19915;-81
2022/05/03 08:15:02;;;;;;;;;;;;;;;12.62;76.45;99756.94;5127604;27;20712;-82
2022/05/03 08:17:28;;;;;;;2.70;0.95;;;;;;;12.75;75.74;99731.94;5138486;27;19915;-81
2022/05/03 08:19:54;;;;;;;;;;;;;;;12.53;74.27;99753.59;5143399;27;20031;-82
2022/05/03 08:22:19;;;;;;;1.33;1.02;;;;;;;12.14;75.56;99761.50;5124262;28;19965;-85
2022/05/03 08:24:45;;;;;;;;;;;;;;;12.25;76.39;99757.75;5127636;27;20026;-84
2022/05/03 08:27:10;;;;;;;;;;;;;;;12.37;77.43;99760.13;5126639;27;19919;-85
2022/05/03 08:29:36;;;;;;;0.35;0.35;;;;;;;12.08;75.71;99737.81;5144544;27;20428;-85
2022/05/03 08:32:02;;;;;;;;;;;;;;;12.33;74.61;99761.97;5130448;27;20071;-84
2022/05/03 08:34:28;;;;;;;0.73;0.73;;;;;;;12.23;74.29;99746.34;5141689;27;20387;-85
2022/05/03 08:42:22;;;;;;;0.30;0.30;;;;;;;12.05;76.19;99755.50;5122869;27;20143;-85
2022/05/03 08:44:48;;;;;;;;;;;;;;;12.16;74.24;99777.34;5112700;27;20048;-85
2022/05/03 08:47:17;;;;;;;1.60;1.20;;;;;;;11.69;73.45;99760.56;5111707;27;19912;-84
2022/05/03 08:49:46;;;;;;;1.55;1.40;;;;;;;12.12;74.43;99789.72;5128348;27;20411;-84
2022/05/03 08:52:12;;;;;;;2.28;2.08;;;;;;;11.97;75.26;99793.56;5110234;27;20489;-84
2022/05/03 08:54:38;;;;;;;;;;;;;;;11.91;nan;99784.81;5091232;28;20158;-84
2022/05/03 08:57:07;;;;;;;4.82;2.55;;;;;;;11.96;76.92;99783.00;5092269;27;19924;-86
2022/05/03 08:59:37;;;;;;;1.85;1.67;;;;;;;11.66;79.07;99766.78;5115290;27;20420;-86
2022/05/03 09:02:04;;;;;;;2.38;1.77;;;;;;;12.14;78.49;99785.31;5095872;28;20504;-85
2022/05/03 09:04:30;;;;;;;3.92;3.58;;;;;;;12.00;79.70;99785.56;5110110;27;20037;-83
2022/05/03 09:06:56;;;;;;;0.80;0.60;;;;;;;11.53;79.60;99752.06;5110655;27;20156;-84
2022/05/03 09:09:21;;;;;;;;;;;;;;;11.75;79.88;99787.75;5115359;27;20035;-86
2022/05/03 09:11:53;;;;;;;2.03;0.73;;;;;;;11.24;78.36;99775.41;5109092;28;19968;-85
2022/05/03 09:14:42;;;;;;;1.20;1.13;;;;;;;11.31;80.24;99763.00;5109171;28;20034;-89
2022/05/03 09:17:08;;;;;;;1.25;1.15;;;;;;;11.42;82.23;99744.34;5118810;27;20122;-85
2022/05/03 09:19:34;;;;;;;1.75;1.30;;;;;;;11.81;82.54;99792.06;5110521;27;20023;-84
2022/05/03 09:24:58;;;;;;;1.20;1.10;;;;;;;11.70;78.62;99749.97;5108965;28;20303;-85
2022/05/03 09:27:24;;;;;;;0.50;0.50;;;;;;;11.89;77.67;99773.41;5116753;27;20067;-84
2022/05/03 09:30:10;;;;;;;0.50;0.50;;;;;;;12.18;81.77;99764.94;5109315;28;20484;-84
2022/05/03 09:32:47;;;;;;;0.70;0.70;;;;;;;12.60;81.12;99764.91;5117601;27;20415;-85
2022/05/03 09:35:35;;;;;;;0.68;0.68;;;;;;;12.42;77.12;99779.44;5109870;27;20036;-86
2022/05/03 09:38:04;;;;;;;1.30;1.20;;;;;;;12.42;77.35;99770.63;5109301;28;20556;-83
2022/05/03 09:40:41;;;;;;;1.83;1.38;;;;;;;12.24;76.72;99775.41;5108745;28;20114;-85
2022/05/03 09:43:08;;;;;;;0.73;0.68;;;;;;;12.00;77.45;99777.63;5119557;27;20055;-85
2022/05/03 09:45:34;;;;;;;2.10;1.83;;;;;;;12.13;77.12;99775.59;5129313;27;20023;-86
2022/05/03 09:48:00;;;;;;;1.25;1.00;;;;;;;12.00;76.39;99792.59;5109164;27;20389;-85
2022/05/03 09:50:27;;;;;;;;;;;;;;;11.73;74.39;99794.84;5130057;27;20041;-85
2022/05/03 09:52:53;;;;;;;0.50;0.50;;;;;;;11.78;74.40;99792.13;5129345;27;19922;-85
2022/05/03 09:55:29;;;;;;;;;;;;;;;12.03;73.94;99796.97;5128145;27;20030;-84
2022/05/03 09:57:56;;;;;;;1.80;1.65;;;;;;;12.06;73.01;99791.63;5115949;27;20326;-83
2022/05/03 10:00:22;;;;;;;1.63;0.98;;;;;;;12.03;72.93;99771.41;5123563;27;20055;-83
2022/05/03 10:02:47;;;;;;;;;;;;;;;12.48;72.16;99800.47;5110538;27;20081;-84
2022/05/03 10:05:14;;;;;;;1.75;1.23;;;;;;;12.17;73.04;99773.75;5114261;27;19923;-83
2022/05/03 10:07:43;;;;;;;0.70;0.60;;;;;;;12.21;73.67;99786.03;5110121;27;20028;-81
2022/05/03 10:10:10;;;;;;;0.73;0.73;;;;;;;12.46;71.41;99782.88;5129233;27;20034;-82
2022/05/03 10:12:36;;;;;;;2.17;0.88;;;;;;;12.77;73.51;99787.50;5108976;27;20565;-81
2022/05/03 10:15:02;;;;;;;;;;;;;;;13.17;72.53;99786.56;5118419;27;20078;-81
2022/05/03 10:20:40;;;;;;;1.80;1.70;;;;;;;13.23;69.66;99792.59;5127330;27;20099;-82
2022/05/03 10:23:33;;;;;;;0.77;0.70;;;;;;;12.71;70.54;99743.50;5108972;27;20031;-81
2022/05/03 10:26:06;;;;;;;2.00;0.85;;;;;;;12.96;70.45;99783.53;5113608;27;20123;-83
2022/05/03 10:29:00;;;;;;;0.65;0.50;;;;;;;12.76;71.97;99789.28;5127956;27;20049;-83
2022/05/03 10:31:26;;;;;;;0.98;0.77;;;;;;;12.54;70.78;99779.19;5099612;27;20100;-82
2022/05/03 10:33:52;;;;;;;;;;;;;;;12.74;72.80;99782.28;5109243;27;20114;-82
2022/05/03 10:36:30;;;;;;;0.55;0.50;;;;;;;12.65;71.17;99786.88;5111168;27;19915;-82
2022/05/03 10:39:05;;;;;;;1.23;0.93;;;;;;;12.79;73.95;99760.09;5113916;27;20043;-80
2022/05/03 10:41:31;;;;;;;2.00;1.52;;;;;;;13.14;74.49;99779.56;5110195;27;20046;-82
2022/05/03 10:43:57;;;;;;;1.95;1.05;;;;;;;13.37;74.42;99720.75;5106464;28;20156;-84
2022/05/03 10:46:23;;;;;;;;;;;;;;;13.59;70.98;99770.53;5091543;28;20048;-83
2022/05/03 10:49:13;;;;;;;0.50;0.50;;;;;;;13.17;69.91;99770.69;5125577;27;20433;-83
2022/05/03 10:51:39;;;;;;;0.80;0.80;;;;;;;13.01;70.05;99754.31;5116104;27;20501;-84
2022/05/03 10:54:06;;;;;;;;;;;;;;;13.01;65.80;99770.19;5105604;28;20077;-86
2022/05/03 10:56:32;;;;;;;3.88;0.93;;;;;;;13.28;67.27;99747.44;5106116;28;19992;-85
2022/05/03 10:59:05;;;;;;;;;;;;;;;13.64;66.40;99767.75;5115277;27;20462;-87
2022/05/03 11:01:30;;;;;;;2.63;1.85;;;;;;;13.79;66.16;99741.72;5110083;27;19990;-87
2022/05/03 11:03:59;;;;;;;;;;;;;;;13.89;62.25;99768.00;5110311;27;20462;-86
2022/05/03 11:06:27;;;;;;;0.38;0.38;;;;;;;13.97;62.70;99766.00;5098188;27;20348;-88
2022/05/03 11:09:04;;;;;;;0.60;0.60;;;;;;;14.41;63.34;99763.84;5106334;27;20037;-87
2022/05/03 11:11:42;;;;;;;1.40;1.00;;;;;;;14.43;66.73;99763.81;5106885;27;20031;-87
2022/05/03 11:14:20;;;;;;;1.23;1.13;;;;;;;14.51;67.12;99727.28;5110765;27;20667;-87
2022/05/03 11:16:48;;;;;;;0.63;0.63;;;;;;;14.29;66.85;99735.03;5095044;28;20038;-87
2022/05/03 11:19:22;;;;;;;1.35;1.00;;;;;;;14.29;67.03;99741.19;5106451;28;20043;-88
2022/05/03 11:21:49;;;;;;;1.00;0.68;;;;;;;14.83;67.29;99717.47;5095683;27;20083;-86
2022/05/03 11:24:22;;;;;;;2.80;1.35;;;;;;;15.08;66.13;99695.44;5107607;28;20033;-86
2022/05/03 11:26:50;;;;;;;0.77;0.77;;;;;;;15.61;65.47;99729.91;5127641;27;20035;-88
2022/05/03 11:29:16;;;;;;;1.67;1.17;;;;;;;15.64;63.37;99713.84;5127791;27;20035;-87
2022/05/03 11:31:52;;;;;;;2.83;1.63;;;;;;;15.55;62.23;99732.78;5108786;28;20121;-90
2022/05/03 11:34:18;;;;;;;1.38;1.08;;;;;;;15.08;62.24;99708.72;5093347;28;20024;-88
2022/05/03 11:36:50;;;;;;;1.13;1.02;;;;;;;15.29;61.25;99728.34;5106762;28;20031;-88
2022/05/03 11:39:16;;;;;;;4.15;1.52;;;;;;;15.40;62.43;99726.22;5096740;28;20046;-89
2022/05/03 11:41:43;;;;;;;2.88;1.40;;;;;;;15.17;63.41;99717.22;5109975;28;20778;-87
2022/05/03 11:44:09;;;;;;;1.55;1.25;;;;;;;15.12;59.04;99708.56;5125849;28;20016;-86
2022/05/03 11:46:37;;;;;;;1.35;1.10;;;;;;;15.45;59.50;99726.91;5125580;28;20038;-86
2022/05/03 11:49:08;;;;;;;0.80;0.60;;;;;;;15.02;59.08;99715.94;5100616;28;20058;-86
2022/05/03 11:57:10;;;;;;;2.45;1.63;;;;;;;16.18;56.71;99709.25;5116051;28;20039;-88
2022/05/03 11:59:38;;;;;;;0.70;0.70;;;;;;;15.90;53.91;99723.56;5104778;28;20488;-87
2022/05/03 12:02:15;;;;;;;4.03;0.95;;;;;;;15.80;58.60;99708.91;5107721;28;20046;-84
2022/05/03 12:05:05;;;;;;;0.60;0.60;;;;;;;16.00;55.54;99700.16;5106533;28;20032;-85
2022/05/03 12:07:45;;;;;;;0.43;0.43;;;;;;;16.00;53.94;99720.56;5106905;28;20043;-86
2022/05/03 12:10:25;;;;;;;0.77;0.55;;;;;;;16.61;55.16;99712.91;5088053;28;20033;-85
2022/05/03 12:13:13;;;;;;;0.60;0.60;;;;;;;16.84;57.52;99716.47;5099300;28;20035;-85
2022/05/03 12:15:45;;;;;;;1.95;1.38;;;;;;;16.37;57.54;99729.84;5107002;28;20035;-86
2022/05/03 12:18:20;;;;;;;0.65;0.47;;;;;;;16.96;55.22;99709.78;5107490;28;20074;-86
2022/05/03 12:20:55;;;;;;;1.23;0.95;;;;;;;17.08;54.68;99684.44;5099624;27;20114;-86
2022/05/03 12:23:33;;;;;;;1.85;0.90;;;;;;;16.68;54.33;99718.00;5118928;27;20028;-84
2022/05/03 12:26:18;;;;;;;9.20;1.02;;;;;;;16.06;52.03;99717.69;5109223;28;20027;-85
2022/05/03 12:28:47;;;;;;;2.95;0.98;;;;;;;15.75;51.67;99690.41;5110855;28;20121;-83
2022/05/03 12:31:14;;;;;;;5.38;1.38;;;;;;;15.49;52.62;99717.03;5124020;27;20412;-86
2022/05/03 12:33:42;;;;;;;1.98;1.35;;;;;;;15.68;53.51;99712.81;5128520;27;20031;-85
2022/05/03 12:36:08;;;;;;;1.45;1.30;;;;;;;15.65;52.32;99723.56;5121624;27;20039;-86
2022/05/03 12:38:46;;;;;;;1.63;1.25;;;;;;;15.31;54.92;99708.78;5110455;28;20031;-84
2022/05/03 12:41:25;;;;;;;1.48;1.13;;;;;;;15.05;54.36;99714.97;5110464;28;20051;-84
2022/05/03 12:44:09;;;;;;;0.30;0.30;;;;;;;14.95;54.53;99714.44;5092008;28;20563;-87
2022/05/03 12:46:36;;;;;;;2.45;1.30;;;;;;;15.34;53.40;99729.94;5088778;28;20065;-84
2022/05/03 12:49:13;;;;;;;1.38;0.85;;;;;;;15.17;54.09;99703.09;5114868;27;20039;-85
2022/05/03 12:51:49;;;;;;;0.50;0.50;;;;;;;14.07;61.95;99725.03;5130422;27;20100;-85
2022/05/03 12:54:15;;;;;;;1.02;0.60;;;;;;;13.92;63.65;99718.38;5131067;27;20081;-84
2022/05/03 12:59:27;;;;;;;0.60;0.60;;;;;;;13.95;65.11;99739.50;5131011;27;20084;-83
2022/05/03 13:01:55;;;;;;;0.35;0.35;;;;;;;14.02;64.48;99737.53;5130747;27;20030;-85
2022/05/03 13:04:21;;;;;;;1.38;1.25;;;;;;;14.12;64.92;99728.41;5111666;27;20028;-84
2022/05/03 13:06:48;;;;;;;0.40;0.40;;;;;;;13.81;64.10;99744.34;5110066;28;20462;-84
2022/05/03 13:09:14;;;;;;;0.75;0.75;;;;;;;13.77;64.21;99747.97;5091647;28;20039;-84
2022/05/03 13:11:40;;;;;;;0.70;0.70;;;;;;;13.24;64.61;99706.06;5109735;28;20481;-84
2022/05/03 13:14:06;;;;;;;;;;;;;;;13.29;66.46;99740.38;5110053;28;20115;-83
2022/05/03 13:16:32;;;;;;;0.65;0.50;;;;;;;13.15;65.82;99690.41;5109744;28;20417;-83